sensor_id;sensor_type;location;lat;lon;timestamp;P1;durP1;ratioP1;P2;durP2;ratioP2
71464;SDS011;59274;49.874;9.154;2022-12-18T00:01:32;27.20;;;11.43;;
71464;SDS011;59274;49.874;9.154;2022-12-18T00:04:00;25.98;;;11.68;;
71464;SDS011;59274;49.874;9.154;2022-12-18T00:06:28;29.13;;;12.75;;
71464;SDS011;59274;49.874;9.154;2022-12-18T00:08:55;32.45;;;12.65;;
71464;SDS011;59274;49.874;9.154;2022-12-18T00:11:22;32.47;;;13.85;;
71464;SDS011;59274;49.874;9.154;2022-12-18T00:13:49;32.85;;;13.38;;
71464;SDS011;59274;49.874;9.154;2022-12-18T00:16:16;26.33;;;11.38;;
71464;SDS011;59274;49.874;9.154;2022-12-18T00:18:47;27.90;;;11.45;;
71464;SDS011;59274;49.874;9.154;2022-12-18T00:21:14;26.92;;;12.95;;
71464;SDS011;59274;49.874;9.154;2022-12-18T00:23:41;26.63;;;10.90;;
71464;SDS011;59274;49.874;9.154;2022-12-18T00:26:12;30.00;;;13.60;;
71464;SDS011;59274;49.874;9.154;2022-12-18T00:28:46;35.45;;;12.98;;
71464;SDS011;59274;49.874;9.154;2022-12-18T00:31:14;34.35;;;14.25;;
71464;SDS011;59274;49.874;9.154;2022-12-18T00:33:41;33.60;;;13.25;;
71464;SDS011;59274;49.874;9.154;2022-12-18T00:36:07;25.40;;;11.60;;
71464;SDS011;59274;49.874;9.154;2022-12-18T00:38:42;27.58;;;12.52;;
71464;SDS011;59274;49.874;9.154;2022-12-18T00:41:08;30.83;;;11.83;;
71464;SDS011;59274;49.874;9.154;2022-12-18T00:43:35;27.45;;;11.82;;
71464;SDS011;59274;49.874;9.154;2022-12-18T00:46:01;23.23;;;11.50;;
71464;SDS011;59274;49.874;9.154;2022-12-18T00:48:26;26.00;;;12.05;;
71464;SDS011;59274;49.874;9.154;2022-12-18T00:50:52;28.40;;;11.83;;
71464;SDS011;59274;49.874;9.154;2022-12-18T00:53:17;24.37;;;11.10;;
71464;SDS011;59274;49.874;9.154;2022-12-18T00:55:43;27.87;;;11.33;;
71464;SDS011;59274;49.874;9.154;2022-12-18T00:58:10;25.23;;;12.07;;
71464;SDS011;59274;49.874;9.154;2022-12-18T01:00:36;24.80;;;12.07;;
71464;SDS011;59274;49.874;9.154;2022-12-18T01:03:03;24.53;;;11.13;;
71464;SDS011;59274;49.874;9.154;2022-12-18T01:05:28;26.30;;;12.55;;
71464;SDS011;59274;49.874;9.154;2022-12-18T01:07:55;25.07;;;11.17;;
71464;SDS011;59274;49.874;9.154;2022-12-18T01:10:21;25.02;;;12.15;;
71464;SDS011;59274;49.874;9.154;2022-12-18T01:12:46;29.37;;;11.87;;
71464;SDS011;59274;49.874;9.154;2022-12-18T01:15:12;29.33;;;11.40;;
71464;SDS011;59274;49.874;9.154;2022-12-18T01:17:39;25.55;;;12.30;;
71464;SDS011;59274;49.874;9.154;2022-12-18T01:20:05;29.87;;;13.47;;
71464;SDS011;59274;49.874;9.154;2022-12-18T01:22:31;26.25;;;12.25;;
71464;SDS011;59274;49.874;9.154;2022-12-18T01:24:57;28.20;;;11.13;;
71464;SDS011;59274;49.874;9.154;2022-12-18T01:27:22;32.53;;;13.60;;
71464;SDS011;59274;49.874;9.154;2022-12-18T01:29:48;25.83;;;11.05;;
71464;SDS011;59274;49.874;9.154;2022-12-18T01:32:14;31.23;;;11.80;;
71464;SDS011;59274;49.874;9.154;2022-12-18T01:34:40;29.10;;;12.45;;
71464;SDS011;59274;49.874;9.154;2022-12-18T01:37:05;29.43;;;12.03;;
71464;SDS011;59274;49.874;9.154;2022-12-18T01:39:31;27.10;;;12.17;;
71464;SDS011;59274;49.874;9.154;2022-12-18T01:42:02;28.02;;;12.63;;
71464;SDS011;59274;49.874;9.154;2022-12-18T01:50:10;29.33;;;12.70;;
71464;SDS011;59274;49.874;9.154;2022-12-18T01:52:38;27.80;;;11.85;;
71464;SDS011;59274;49.874;9.154;2022-12-18T01:55:06;32.85;;;13.27;;
71464;SDS011;59274;49.874;9.154;2022-12-18T01:57:33;26.75;;;12.23;;
71464;SDS011;59274;49.874;9.154;2022-12-18T02:00:00;32.25;;;11.60;;
71464;SDS011;59274;49.874;9.154;2022-12-18T02:02:32;23.25;;;10.63;;
71464;SDS011;59274;49.874;9.154;2022-12-18T02:04:58;27.70;;;12.00;;
71464;SDS011;59274;49.874;9.154;2022-12-18T02:18:38;31.27;;;11.27;;
71464;SDS011;59274;49.874;9.154;2022-12-18T02:23:58;23.33;;;10.88;;
71464;SDS011;59274;49.874;9.154;2022-12-18T02:29:34;26.10;;;10.48;;
71464;SDS011;59274;49.874;9.154;2022-12-18T02:32:06;23.58;;;10.93;;
71464;SDS011;59274;49.874;9.154;2022-12-18T02:34:38;25.33;;;11.20;;
71464;SDS011;59274;49.874;9.154;2022-12-18T02:37:05;25.80;;;11.27;;
71464;SDS011;59274;49.874;9.154;2022-12-18T02:39:37;25.98;;;11.10;;
71464;SDS011;59274;49.874;9.154;2022-12-18T02:42:04;31.83;;;12.30;;
71464;SDS011;59274;49.874;9.154;2022-12-18T02:44:33;28.07;;;11.33;;
71464;SDS011;59274;49.874;9.154;2022-12-18T02:47:00;23.40;;;11.32;;
71464;SDS011;59274;49.874;9.154;2022-12-18T02:49:35;25.75;;;11.25;;
71464;SDS011;59274;49.874;9.154;2022-12-18T02:57:18;23.13;;;10.55;;
71464;SDS011;59274;49.874;9.154;2022-12-18T02:59:53;26.20;;;10.95;;
71464;SDS011;59274;49.874;9.154;2022-12-18T03:07:50;29.23;;;10.98;;
71464;SDS011;59274;49.874;9.154;2022-12-18T03:10:23;27.30;;;11.20;;
71464;SDS011;59274;49.874;9.154;2022-12-18T03:12:54;23.95;;;10.20;;
71464;SDS011;59274;49.874;9.154;2022-12-18T03:15:28;23.80;;;11.30;;
71464;SDS011;59274;49.874;9.154;2022-12-18T03:18:06;26.48;;;11.38;;
71464;SDS011;59274;49.874;9.154;2022-12-18T03:20:37;24.20;;;9.85;;
71464;SDS011;59274;49.874;9.154;2022-12-18T03:23:09;26.83;;;11.02;;
71464;SDS011;59274;49.874;9.154;2022-12-18T03:25:39;27.83;;;10.93;;
71464;SDS011;59274;49.874;9.154;2022-12-18T03:28:08;29.45;;;12.00;;
71464;SDS011;59274;49.874;9.154;2022-12-18T03:30:38;24.00;;;10.50;;
71464;SDS011;59274;49.874;9.154;2022-12-18T03:33:50;25.63;;;11.63;;
71464;SDS011;59274;49.874;9.154;2022-12-18T03:36:18;24.00;;;9.83;;
71464;SDS011;59274;49.874;9.154;2022-12-18T03:38:43;30.23;;;11.40;;
71464;SDS011;59274;49.874;9.154;2022-12-18T03:41:17;25.43;;;10.67;;
71464;SDS011;59274;49.874;9.154;2022-12-18T03:44:04;26.25;;;11.73;;
71464;SDS011;59274;49.874;9.154;2022-12-18T03:46:40;28.45;;;12.52;;
71464;SDS011;59274;49.874;9.154;2022-12-18T03:49:11;27.92;;;11.35;;
71464;SDS011;59274;49.874;9.154;2022-12-18T03:51:57;28.15;;;12.65;;
71464;SDS011;59274;49.874;9.154;2022-12-18T03:54:45;25.23;;;10.60;;
71464;SDS011;59274;49.874;9.154;2022-12-18T03:57:16;26.30;;;12.57;;
71464;SDS011;59274;49.874;9.154;2022-12-18T03:59:45;28.27;;;11.10;;
71464;SDS011;59274;49.874;9.154;2022-12-18T04:02:12;28.25;;;11.73;;
71464;SDS011;59274;49.874;9.154;2022-12-18T04:04:40;32.07;;;11.90;;
71464;SDS011;59274;49.874;9.154;2022-12-18T04:07:07;30.67;;;12.88;;
71464;SDS011;59274;49.874;9.154;2022-12-18T04:09:34;28.50;;;11.95;;
71464;SDS011;59274;49.874;9.154;2022-12-18T04:12:01;34.95;;;13.65;;
71464;SDS011;59274;49.874;9.154;2022-12-18T04:14:27;29.40;;;12.67;;
71464;SDS011;59274;49.874;9.154;2022-12-18T04:16:53;32.20;;;13.17;;
71464;SDS011;59274;49.874;9.154;2022-12-18T04:19:18;36.35;;;13.93;;
71464;SDS011;59274;49.874;9.154;2022-12-18T04:21:43;39.90;;;14.80;;
71464;SDS011;59274;49.874;9.154;2022-12-18T04:24:09;26.53;;;12.77;;
71464;SDS011;59274;49.874;9.154;2022-12-18T04:26:34;31.33;;;12.53;;
71464;SDS011;59274;49.874;9.154;2022-12-18T04:29:00;25.93;;;11.30;;
71464;SDS011;59274;49.874;9.154;2022-12-18T04:31:25;42.73;;;15.10;;
71464;SDS011;59274;49.874;9.154;2022-12-18T04:33:51;34.88;;;14.18;;
71464;SDS011;59274;49.874;9.154;2022-12-18T04:36:16;36.27;;;14.47;;
71464;SDS011;59274;49.874;9.154;2022-12-18T04:38:41;32.10;;;13.63;;
71464;SDS011;59274;49.874;9.154;2022-12-18T04:41:07;42.00;;;15.37;;
71464;SDS011;59274;49.874;9.154;2022-12-18T04:43:32;40.80;;;15.13;;
71464;SDS011;59274;49.874;9.154;2022-12-18T04:46:02;37.30;;;13.98;;
71464;SDS011;59274;49.874;9.154;2022-12-18T04:48:28;28.87;;;12.70;;
71464;SDS011;59274;49.874;9.154;2022-12-18T04:50:54;30.55;;;13.52;;
71464;SDS011;59274;49.874;9.154;2022-12-18T04:53:19;46.33;;;17.40;;
71464;SDS011;59274;49.874;9.154;2022-12-18T04:55:44;47.83;;;17.63;;
71464;SDS011;59274;49.874;9.154;2022-12-18T04:58:10;53.80;;;19.47;;
71464;SDS011;59274;49.874;9.154;2022-12-18T05:00:35;86.88;;;23.95;;
71464;SDS011;59274;49.874;9.154;2022-12-18T05:03:01;39.00;;;16.27;;
71464;SDS011;59274;49.874;9.154;2022-12-18T05:05:27;32.97;;;13.73;;
71464;SDS011;59274;49.874;9.154;2022-12-18T05:07:52;35.00;;;13.00;;
71464;SDS011;59274;49.874;9.154;2022-12-18T05:10:18;59.00;;;21.60;;
71464;SDS011;59274;49.874;9.154;2022-12-18T05:12:43;55.03;;;19.70;;
71464;SDS011;59274;49.874;9.154;2022-12-18T05:15:26;63.75;;;21.63;;
71464;SDS011;59274;49.874;9.154;2022-12-18T05:17:52;37.85;;;14.65;;
71464;SDS011;59274;49.874;9.154;2022-12-18T05:20:18;44.08;;;17.08;;
71464;SDS011;59274;49.874;9.154;2022-12-18T05:22:43;34.33;;;15.33;;
71464;SDS011;59274;49.874;9.154;2022-12-18T05:25:09;29.63;;;14.77;;
71464;SDS011;59274;49.874;9.154;2022-12-18T05:27:35;37.60;;;14.83;;
71464;SDS011;59274;49.874;9.154;2022-12-18T05:30:00;36.90;;;14.83;;
71464;SDS011;59274;49.874;9.154;2022-12-18T05:32:25;30.57;;;13.53;;
71464;SDS011;59274;49.874;9.154;2022-12-18T05:34:51;38.67;;;15.10;;
71464;SDS011;59274;49.874;9.154;2022-12-18T05:37:16;34.35;;;14.30;;
71464;SDS011;59274;49.874;9.154;2022-12-18T05:39:42;35.77;;;13.73;;
71464;SDS011;59274;49.874;9.154;2022-12-18T05:42:08;29.10;;;12.75;;
71464;SDS011;59274;49.874;9.154;2022-12-18T05:44:33;32.10;;;12.77;;
71464;SDS011;59274;49.874;9.154;2022-12-18T05:46:59;34.00;;;14.67;;
71464;SDS011;59274;49.874;9.154;2022-12-18T05:49:24;34.67;;;14.80;;
71464;SDS011;59274;49.874;9.154;2022-12-18T05:51:49;28.40;;;12.27;;
71464;SDS011;59274;49.874;9.154;2022-12-18T05:54:15;30.25;;;13.65;;
71464;SDS011;59274;49.874;9.154;2022-12-18T05:56:40;32.30;;;15.48;;
71464;SDS011;59274;49.874;9.154;2022-12-18T05:59:06;30.90;;;12.63;;
71464;SDS011;59274;49.874;9.154;2022-12-18T06:01:31;34.63;;;14.87;;
71464;SDS011;59274;49.874;9.154;2022-12-18T06:03:57;33.73;;;14.03;;
71464;SDS011;59274;49.874;9.154;2022-12-18T06:06:23;38.30;;;15.50;;
71464;SDS011;59274;49.874;9.154;2022-12-18T06:08:50;32.10;;;14.95;;
71464;SDS011;59274;49.874;9.154;2022-12-18T06:11:18;41.65;;;14.90;;
71464;SDS011;59274;49.874;9.154;2022-12-18T06:13:45;30.13;;;13.70;;
71464;SDS011;59274;49.874;9.154;2022-12-18T06:16:11;35.47;;;13.55;;
71464;SDS011;59274;49.874;9.154;2022-12-18T06:18:37;36.77;;;13.53;;
71464;SDS011;59274;49.874;9.154;2022-12-18T06:21:02;33.13;;;14.07;;
71464;SDS011;59274;49.874;9.154;2022-12-18T06:23:28;39.90;;;16.07;;
71464;SDS011;59274;49.874;9.154;2022-12-18T06:25:53;33.90;;;13.50;;
71464;SDS011;59274;49.874;9.154;2022-12-18T06:28:19;35.55;;;14.02;;
71464;SDS011;59274;49.874;9.154;2022-12-18T06:30:45;26.47;;;12.63;;
71464;SDS011;59274;49.874;9.154;2022-12-18T06:33:11;34.88;;;13.25;;
71464;SDS011;59274;49.874;9.154;2022-12-18T06:35:37;34.30;;;14.90;;
71464;SDS011;59274;49.874;9.154;2022-12-18T06:38:02;31.30;;;12.23;;
71464;SDS011;59274;49.874;9.154;2022-12-18T06:40:29;34.25;;;14.20;;
71464;SDS011;59274;49.874;9.154;2022-12-18T06:42:54;29.70;;;14.13;;
71464;SDS011;59274;49.874;9.154;2022-12-18T06:45:20;38.55;;;15.73;;
71464;SDS011;59274;49.874;9.154;2022-12-18T06:47:45;52.80;;;17.37;;
71464;SDS011;59274;49.874;9.154;2022-12-18T06:50:11;41.03;;;15.83;;
71464;SDS011;59274;49.874;9.154;2022-12-18T06:52:37;31.48;;;12.52;;
71464;SDS011;59274;49.874;9.154;2022-12-18T06:55:04;36.25;;;16.20;;
71464;SDS011;59274;49.874;9.154;2022-12-18T06:57:30;33.65;;;14.82;;
71464;SDS011;59274;49.874;9.154;2022-12-18T06:59:55;36.90;;;14.83;;
71464;SDS011;59274;49.874;9.154;2022-12-18T07:02:21;31.27;;;13.95;;
71464;SDS011;59274;49.874;9.154;2022-12-18T07:04:46;34.17;;;13.03;;
71464;SDS011;59274;49.874;9.154;2022-12-18T07:07:14;26.37;;;13.30;;
71464;SDS011;59274;49.874;9.154;2022-12-18T07:09:40;28.23;;;12.02;;
71464;SDS011;59274;49.874;9.154;2022-12-18T07:12:05;32.70;;;13.90;;
71464;SDS011;59274;49.874;9.154;2022-12-18T07:14:31;34.35;;;13.88;;
71464;SDS011;59274;49.874;9.154;2022-12-18T07:16:57;37.63;;;15.10;;
71464;SDS011;59274;49.874;9.154;2022-12-18T07:19:23;33.53;;;14.07;;
71464;SDS011;59274;49.874;9.154;2022-12-18T07:21:49;31.30;;;13.48;;
71464;SDS011;59274;49.874;9.154;2022-12-18T07:24:15;30.33;;;13.70;;
71464;SDS011;59274;49.874;9.154;2022-12-18T07:26:41;36.80;;;14.88;;
71464;SDS011;59274;49.874;9.154;2022-12-18T07:29:06;33.42;;;13.32;;
71464;SDS011;59274;49.874;9.154;2022-12-18T07:31:31;29.83;;;12.10;;
71464;SDS011;59274;49.874;9.154;2022-12-18T07:33:57;34.30;;;12.63;;
71464;SDS011;59274;49.874;9.154;2022-12-18T07:36:22;32.17;;;13.37;;
71464;SDS011;59274;49.874;9.154;2022-12-18T07:38:48;38.83;;;12.83;;
71464;SDS011;59274;49.874;9.154;2022-12-18T07:41:14;30.33;;;11.60;;
71464;SDS011;59274;49.874;9.154;2022-12-18T07:43:40;35.88;;;12.80;;
71464;SDS011;59274;49.874;9.154;2022-12-18T07:46:07;30.80;;;13.03;;
71464;SDS011;59274;49.874;9.154;2022-12-18T07:48:33;35.58;;;14.25;;
71464;SDS011;59274;49.874;9.154;2022-12-18T07:51:03;27.88;;;12.05;;
71464;SDS011;59274;49.874;9.154;2022-12-18T07:53:30;29.10;;;12.68;;
71464;SDS011;59274;49.874;9.154;2022-12-18T07:55:57;26.53;;;11.40;;
71464;SDS011;59274;49.874;9.154;2022-12-18T07:58:23;29.25;;;11.50;;
71464;SDS011;59274;49.874;9.154;2022-12-18T08:00:49;30.50;;;13.33;;
71464;SDS011;59274;49.874;9.154;2022-12-18T08:03:14;36.45;;;13.48;;
71464;SDS011;59274;49.874;9.154;2022-12-18T08:05:40;38.73;;;14.73;;
71464;SDS011;59274;49.874;9.154;2022-12-18T08:08:05;33.77;;;13.17;;
71464;SDS011;59274;49.874;9.154;2022-12-18T08:10:31;31.27;;;14.37;;
71464;SDS011;59274;49.874;9.154;2022-12-18T08:12:56;26.63;;;12.20;;
71464;SDS011;59274;49.874;9.154;2022-12-18T08:15:21;27.95;;;11.45;;
71464;SDS011;59274;49.874;9.154;2022-12-18T08:17:47;36.72;;;13.00;;
71464;SDS011;59274;49.874;9.154;2022-12-18T08:20:12;29.47;;;11.57;;
71464;SDS011;59274;49.874;9.154;2022-12-18T08:22:40;27.03;;;12.37;;
71464;SDS011;59274;49.874;9.154;2022-12-18T08:25:06;29.67;;;11.98;;
71464;SDS011;59274;49.874;9.154;2022-12-18T08:27:32;20.80;;;7.72;;
71464;SDS011;59274;49.874;9.154;2022-12-18T08:29:57;27.00;;;11.90;;
71464;SDS011;59274;49.874;9.154;2022-12-18T08:32:24;31.65;;;12.55;;
71464;SDS011;59274;49.874;9.154;2022-12-18T08:34:50;21.97;;;8.73;;
71464;SDS011;59274;49.874;9.154;2022-12-18T08:37:15;27.10;;;11.05;;
71464;SDS011;59274;49.874;9.154;2022-12-18T08:39:41;29.07;;;11.30;;
71464;SDS011;59274;49.874;9.154;2022-12-18T08:42:06;26.33;;;10.23;;
71464;SDS011;59274;49.874;9.154;2022-12-18T08:44:52;23.08;;;10.40;;
71464;SDS011;59274;49.874;9.154;2022-12-18T08:47:17;28.57;;;12.03;;
71464;SDS011;59274;49.874;9.154;2022-12-18T08:49:43;26.40;;;10.27;;
71464;SDS011;59274;49.874;9.154;2022-12-18T08:52:08;32.23;;;12.33;;
71464;SDS011;59274;49.874;9.154;2022-12-18T08:54:33;29.87;;;11.50;;
71464;SDS011;59274;49.874;9.154;2022-12-18T08:56:59;32.38;;;11.15;;
71464;SDS011;59274;49.874;9.154;2022-12-18T08:59:24;36.17;;;10.80;;
71464;SDS011;59274;49.874;9.154;2022-12-18T09:01:53;27.37;;;10.63;;
71464;SDS011;59274;49.874;9.154;2022-12-18T09:04:19;21.05;;;8.93;;
71464;SDS011;59274;49.874;9.154;2022-12-18T09:06:45;32.00;;;10.00;;
71464;SDS011;59274;49.874;9.154;2022-12-18T09:09:10;27.60;;;10.23;;
71464;SDS011;59274;49.874;9.154;2022-12-18T09:11:36;35.67;;;12.33;;
71464;SDS011;59274;49.874;9.154;2022-12-18T09:14:01;31.97;;;11.77;;
71464;SDS011;59274;49.874;9.154;2022-12-18T09:16:28;24.25;;;10.32;;
71464;SDS011;59274;49.874;9.154;2022-12-18T09:18:54;30.75;;;11.13;;
71464;SDS011;59274;49.874;9.154;2022-12-18T09:21:24;34.00;;;10.40;;
71464;SDS011;59274;49.874;9.154;2022-12-18T09:23:51;25.48;;;8.25;;
71464;SDS011;59274;49.874;9.154;2022-12-18T09:26:19;20.70;;;8.95;;
71464;SDS011;59274;49.874;9.154;2022-12-18T09:28:45;32.88;;;11.15;;
71464;SDS011;59274;49.874;9.154;2022-12-18T09:31:11;27.57;;;10.43;;
71464;SDS011;59274;49.874;9.154;2022-12-18T09:33:37;27.80;;;9.85;;
71464;SDS011;59274;49.874;9.154;2022-12-18T09:36:03;31.33;;;12.10;;
71464;SDS011;59274;49.874;9.154;2022-12-18T09:38:31;36.95;;;13.52;;
71464;SDS011;59274;49.874;9.154;2022-12-18T09:41:16;27.67;;;10.02;;
71464;SDS011;59274;49.874;9.154;2022-12-18T09:43:46;32.85;;;11.02;;
71464;SDS011;59274;49.874;9.154;2022-12-18T09:46:19;36.10;;;11.57;;
71464;SDS011;59274;49.874;9.154;2022-12-18T09:48:52;30.20;;;11.70;;
71464;SDS011;59274;49.874;9.154;2022-12-18T09:51:21;25.52;;;10.38;;
71464;SDS011;59274;49.874;9.154;2022-12-18T09:54:05;30.75;;;9.85;;
71464;SDS011;59274;49.874;9.154;2022-12-18T09:56:38;29.37;;;9.53;;
71464;SDS011;59274;49.874;9.154;2022-12-18T09:59:30;35.85;;;12.20;;
71464;SDS011;59274;49.874;9.154;2022-12-18T10:01:58;34.88;;;12.57;;
71464;SDS011;59274;49.874;9.154;2022-12-18T10:04:24;28.83;;;10.13;;
71464;SDS011;59274;49.874;9.154;2022-12-18T10:06:58;37.47;;;11.95;;
71464;SDS011;59274;49.874;9.154;2022-12-18T10:09:38;38.35;;;11.30;;
71464;SDS011;59274;49.874;9.154;2022-12-18T10:12:17;34.88;;;13.15;;
71464;SDS011;59274;49.874;9.154;2022-12-18T10:19:58;31.48;;;11.63;;
71464;SDS011;59274;49.874;9.154;2022-12-18T10:28:15;38.57;;;12.80;;
71464;SDS011;59274;49.874;9.154;2022-12-18T10:30:42;36.38;;;11.65;;
71464;SDS011;59274;49.874;9.154;2022-12-18T10:33:16;38.03;;;12.32;;
71464;SDS011;59274;49.874;9.154;2022-12-18T10:35:43;39.33;;;12.35;;
71464;SDS011;59274;49.874;9.154;2022-12-18T10:43:14;35.85;;;11.48;;
71464;SDS011;59274;49.874;9.154;2022-12-18T10:45:41;32.70;;;11.55;;
71464;SDS011;59274;49.874;9.154;2022-12-18T10:48:19;38.30;;;12.23;;
71464;SDS011;59274;49.874;9.154;2022-12-18T10:50:50;30.10;;;11.15;;
71464;SDS011;59274;49.874;9.154;2022-12-18T10:53:27;32.00;;;11.27;;
71464;SDS011;59274;49.874;9.154;2022-12-18T10:55:54;35.20;;;11.63;;
71464;SDS011;59274;49.874;9.154;2022-12-18T10:58:30;36.03;;;11.90;;
71464;SDS011;59274;49.874;9.154;2022-12-18T11:06:25;35.60;;;12.10;;
71464;SDS011;59274;49.874;9.154;2022-12-18T11:09:00;32.50;;;11.45;;
71464;SDS011;59274;49.874;9.154;2022-12-18T11:11:28;30.48;;;10.45;;
71464;SDS011;59274;49.874;9.154;2022-12-18T11:16:29;29.98;;;10.75;;
71464;SDS011;59274;49.874;9.154;2022-12-18T11:21:55;30.30;;;10.48;;
71464;SDS011;59274;49.874;9.154;2022-12-18T11:24:33;30.83;;;11.57;;
71464;SDS011;59274;49.874;9.154;2022-12-18T11:27:03;34.15;;;11.50;;
71464;SDS011;59274;49.874;9.154;2022-12-18T11:34:41;32.40;;;11.27;;
71464;SDS011;59274;49.874;9.154;2022-12-18T11:37:10;30.73;;;11.63;;
71464;SDS011;59274;49.874;9.154;2022-12-18T11:39:56;36.78;;;11.90;;
71464;SDS011;59274;49.874;9.154;2022-12-18T11:42:54;37.78;;;11.70;;
71464;SDS011;59274;49.874;9.154;2022-12-18T11:45:31;35.13;;;11.18;;
71464;SDS011;59274;49.874;9.154;2022-12-18T11:48:47;30.45;;;11.50;;
71464;SDS011;59274;49.874;9.154;2022-12-18T11:50:55;35.90;;;11.03;;
71464;SDS011;59274;49.874;9.154;2022-12-18T11:53:24;35.05;;;12.07;;
71464;SDS011;59274;49.874;9.154;2022-12-18T12:02:00;36.70;;;11.23;;
71464;SDS011;59274;49.874;9.154;2022-12-18T12:16:45;31.70;;;11.38;;
71464;SDS011;59274;49.874;9.154;2022-12-18T12:22:09;31.05;;;11.02;;
71464;SDS011;59274;49.874;9.154;2022-12-18T12:24:41;33.30;;;11.40;;
71464;SDS011;59274;49.874;9.154;2022-12-18T12:40:51;33.75;;;12.38;;
71464;SDS011;59274;49.874;9.154;2022-12-18T12:45:55;30.70;;;11.00;;
71464;SDS011;59274;49.874;9.154;2022-12-18T12:51:36;30.20;;;11.00;;
71464;SDS011;59274;49.874;9.154;2022-12-18T12:54:08;30.77;;;10.98;;
71464;SDS011;59274;49.874;9.154;2022-12-18T12:56:47;28.35;;;9.75;;
71464;SDS011;59274;49.874;9.154;2022-12-18T13:07:15;31.17;;;11.95;;
71464;SDS011;59274;49.874;9.154;2022-12-18T13:10:30;32.80;;;11.38;;
71464;SDS011;59274;49.874;9.154;2022-12-18T13:18:30;32.97;;;11.02;;
71464;SDS011;59274;49.874;9.154;2022-12-18T13:28:22;33.97;;;11.55;;
71464;SDS011;59274;49.874;9.154;2022-12-18T13:31:06;31.67;;;11.70;;
71464;SDS011;59274;49.874;9.154;2022-12-18T13:36:00;32.25;;;11.18;;
71464;SDS011;59274;49.874;9.154;2022-12-18T13:38:36;36.78;;;10.95;;
71464;SDS011;59274;49.874;9.154;2022-12-18T13:43:45;29.10;;;9.97;;
71464;SDS011;59274;49.874;9.154;2022-12-18T13:48:50;31.67;;;11.25;;
71464;SDS011;59274;49.874;9.154;2022-12-18T13:51:19;30.23;;;10.55;;
71464;SDS011;59274;49.874;9.154;2022-12-18T13:53:48;30.60;;;11.07;;
71464;SDS011;59274;49.874;9.154;2022-12-18T13:56:17;32.90;;;10.83;;
71464;SDS011;59274;49.874;9.154;2022-12-18T13:59:02;31.30;;;10.95;;
71464;SDS011;59274;49.874;9.154;2022-12-18T14:01:42;33.05;;;10.85;;
71464;SDS011;59274;49.874;9.154;2022-12-18T14:04:18;30.85;;;11.40;;
71464;SDS011;59274;49.874;9.154;2022-12-18T14:06:46;32.95;;;11.55;;
71464;SDS011;59274;49.874;9.154;2022-12-18T14:09:13;32.53;;;11.40;;
71464;SDS011;59274;49.874;9.154;2022-12-18T14:11:40;30.70;;;10.85;;
71464;SDS011;59274;49.874;9.154;2022-12-18T14:14:13;30.58;;;10.65;;
71464;SDS011;59274;49.874;9.154;2022-12-18T14:16:41;30.92;;;10.70;;
71464;SDS011;59274;49.874;9.154;2022-12-18T14:19:11;30.73;;;11.03;;
71464;SDS011;59274;49.874;9.154;2022-12-18T14:21:46;33.30;;;11.18;;
71464;SDS011;59274;49.874;9.154;2022-12-18T14:26:41;29.53;;;10.60;;
71464;SDS011;59274;49.874;9.154;2022-12-18T14:32:05;27.38;;;9.50;;
71464;SDS011;59274;49.874;9.154;2022-12-18T14:34:31;35.27;;;11.03;;
71464;SDS011;59274;49.874;9.154;2022-12-18T14:36:56;29.73;;;10.88;;
71464;SDS011;59274;49.874;9.154;2022-12-18T14:39:22;28.60;;;10.63;;
71464;SDS011;59274;49.874;9.154;2022-12-18T14:41:49;31.80;;;10.55;;
71464;SDS011;59274;49.874;9.154;2022-12-18T14:44:14;38.10;;;11.73;;
71464;SDS011;59274;49.874;9.154;2022-12-18T14:46:42;34.53;;;12.23;;
71464;SDS011;59274;49.874;9.154;2022-12-18T14:51:48;29.83;;;11.17;;
71464;SDS011;59274;49.874;9.154;2022-12-18T14:54:22;30.48;;;10.60;;
71464;SDS011;59274;49.874;9.154;2022-12-18T14:56:49;31.33;;;11.02;;
71464;SDS011;59274;49.874;9.154;2022-12-18T14:59:20;29.73;;;10.55;;
71464;SDS011;59274;49.874;9.154;2022-12-18T15:04:32;30.50;;;10.07;;
71464;SDS011;59274;49.874;9.154;2022-12-18T15:07:20;29.38;;;9.85;;
71464;SDS011;59274;49.874;9.154;2022-12-18T15:10:09;28.75;;;10.05;;
71464;SDS011;59274;49.874;9.154;2022-12-18T15:12:41;28.40;;;9.95;;
71464;SDS011;59274;49.874;9.154;2022-12-18T15:17:59;30.47;;;10.50;;
71464;SDS011;59274;49.874;9.154;2022-12-18T15:20:48;28.95;;;10.48;;
71464;SDS011;59274;49.874;9.154;2022-12-18T15:26:00;28.70;;;8.73;;
71464;SDS011;59274;49.874;9.154;2022-12-18T15:28:38;27.70;;;9.55;;
71464;SDS011;59274;49.874;9.154;2022-12-18T15:33:39;31.00;;;10.10;;
71464;SDS011;59274;49.874;9.154;2022-12-18T15:36:10;31.30;;;10.20;;
71464;SDS011;59274;49.874;9.154;2022-12-18T15:38:40;29.10;;;9.18;;
71464;SDS011;59274;49.874;9.154;2022-12-18T15:41:06;29.50;;;10.38;;
71464;SDS011;59274;49.874;9.154;2022-12-18T15:43:38;30.50;;;10.63;;
71464;SDS011;59274;49.874;9.154;2022-12-18T15:46:04;26.43;;;10.40;;
71464;SDS011;59274;49.874;9.154;2022-12-18T15:48:31;30.42;;;9.15;;
71464;SDS011;59274;49.874;9.154;2022-12-18T15:51:03;29.17;;;10.07;;
71464;SDS011;59274;49.874;9.154;2022-12-18T15:53:31;26.10;;;9.32;;
71464;SDS011;59274;49.874;9.154;2022-12-18T15:55:58;25.85;;;10.15;;
71464;SDS011;59274;49.874;9.154;2022-12-18T15:58:42;31.88;;;11.25;;
71464;SDS011;59274;49.874;9.154;2022-12-18T16:01:08;38.60;;;12.67;;
71464;SDS011;59274;49.874;9.154;2022-12-18T16:03:35;26.65;;;10.65;;
71464;SDS011;59274;49.874;9.154;2022-12-18T16:06:01;30.35;;;11.27;;
71464;SDS011;59274;49.874;9.154;2022-12-18T16:08:28;31.60;;;10.17;;
71464;SDS011;59274;49.874;9.154;2022-12-18T16:10:55;27.92;;;10.90;;
71464;SDS011;59274;49.874;9.154;2022-12-18T16:13:21;31.05;;;11.07;;
71464;SDS011;59274;49.874;9.154;2022-12-18T16:15:46;28.20;;;9.70;;
71464;SDS011;59274;49.874;9.154;2022-12-18T16:18:12;31.23;;;10.73;;
71464;SDS011;59274;49.874;9.154;2022-12-18T16:20:37;28.20;;;10.80;;
71464;SDS011;59274;49.874;9.154;2022-12-18T16:23:03;32.17;;;10.27;;
71464;SDS011;59274;49.874;9.154;2022-12-18T16:25:29;30.40;;;11.53;;
71464;SDS011;59274;49.874;9.154;2022-12-18T16:27:54;29.63;;;10.13;;
71464;SDS011;59274;49.874;9.154;2022-12-18T16:30:24;27.45;;;11.02;;
71464;SDS011;59274;49.874;9.154;2022-12-18T16:32:56;29.58;;;11.07;;
71464;SDS011;59274;49.874;9.154;2022-12-18T16:35:21;32.85;;;11.60;;
71464;SDS011;59274;49.874;9.154;2022-12-18T16:37:47;30.07;;;10.73;;
71464;SDS011;59274;49.874;9.154;2022-12-18T16:40:14;29.95;;;9.73;;
71464;SDS011;59274;49.874;9.154;2022-12-18T16:42:41;32.53;;;10.77;;
71464;SDS011;59274;49.874;9.154;2022-12-18T16:45:09;32.78;;;11.00;;
71464;SDS011;59274;49.874;9.154;2022-12-18T16:47:37;29.60;;;11.20;;
71464;SDS011;59274;49.874;9.154;2022-12-18T16:50:04;25.40;;;9.35;;
71464;SDS011;59274;49.874;9.154;2022-12-18T16:52:30;26.75;;;9.50;;
71464;SDS011;59274;49.874;9.154;2022-12-18T16:54:55;29.03;;;11.37;;
71464;SDS011;59274;49.874;9.154;2022-12-18T16:57:21;26.50;;;10.43;;
71464;SDS011;59274;49.874;9.154;2022-12-18T16:59:47;27.00;;;9.70;;
71464;SDS011;59274;49.874;9.154;2022-12-18T17:02:14;29.02;;;9.95;;
71464;SDS011;59274;49.874;9.154;2022-12-18T17:04:40;31.25;;;10.73;;
71464;SDS011;59274;49.874;9.154;2022-12-18T17:07:06;29.30;;;10.52;;